Silver Shadow — C6FN6 — position and weather

sailwx.info

Track history (hours):
 
Tides and Currents Weather Stations Pressure Air Temp Water Temp Dewpoint Dewpoint Depression Visibility Wind Speed Wind Dir Waves Ship Positions

Silver Shadow

Operator: V Ships Leisure SAM

Last reported at 2019-Oct-17 18:00 UTC. Time now 2019-Oct-17 18:07 UTC.
Position N 37°28' E 023°49'.

Length 186 m; draft 6.1 m.

Type: Passenger vessel. MMSI: 308628000.

Date/timePositionNaut miles runAvg speedWind from/ knotsBaromVisibWave heightAir tempDewpointWater temp
2019-Oct-17 18:00N 37°28' E 023°49'510.3
2019-Oct-17 17:30N 37°33' E 023°46'510.3
2019-Oct-17 17:00N 37°38' E 023°43'510.3
2019-Oct-17 16:31N 37°43' E 023°41'510.4
2019-Oct-17 16:01N 37°47' E 023°38'510.1
2019-Oct-17 15:31N 37°52' E 023°37'4 8.2
2019-Oct-17 15:00N 37°56' E 023°37'0 0.5
2019-Oct-17 14:30N 37°56' E 023°38'0 0.0
2019-Oct-17 14:00N 37°56' E 023°38'0 0.0
2019-Oct-17 13:30N 37°56' E 023°38'0 0.0
2019-Oct-17 13:00N 37°56' E 023°38'0 0.0
2019-Oct-17 12:30N 37°56' E 023°38'0 0.0
2019-Oct-17 12:00N 37°56' E 023°38'0 0.0
2019-Oct-17 11:30N 37°56' E 023°38'0 0.0
2019-Oct-17 11:00N 37°56' E 023°38'0 0.0
2019-Oct-17 10:30N 37°56' E 023°38'0 0.0
2019-Oct-17 09:54N 37°56' E 023°38'0 0.0
2019-Oct-17 09:30N 37°56' E 023°38'0 0.0
2019-Oct-17 09:00N 37°56' E 023°38'0 0.0
2019-Oct-17 08:30N 37°56' E 023°38'0 0.0
2019-Oct-17 07:54N 37°56' E 023°38'0 0.0
2019-Oct-17 07:24N 37°56' E 023°38'0 0.0
2019-Oct-17 06:54N 37°56' E 023°38'0 0.0
2019-Oct-17 06:30N 37°56' E 023°38'0 0.0
2019-Oct-17 05:54N 37°56' E 023°38'0 0.0
2019-Oct-17 05:24N 37°56' E 023°38'0 0.0
2019-Oct-17 05:00N 37°56' E 023°38'0 0.0
2019-Oct-17 04:30N 37°56' E 023°38'0 0.0
2019-Oct-17 04:00N 37°56' E 023°38'0 0.5
2019-Oct-17 03:30N 37°56' E 023°37'2 3.1
2019-Oct-17 03:00N 37°55' E 023°36'1 1.8
2019-Oct-17 02:30N 37°54' E 023°37'5 9.1
2019-Oct-17 02:00N 37°50' E 023°39'4 8.9
2019-Oct-17 01:30N 37°46' E 023°42'4 8.6
2019-Oct-17 01:00N 37°42' E 023°44'4 8.1
2019-Oct-17 00:30N 37°39' E 023°46'4 8.2
2019-Oct-16 23:59N 37°35' E 023°48'4 8.6
2019-Oct-16 23:28N 37°31' E 023°46'4 8.5
2019-Oct-16 23:00N 37°27' E 023°44'5 8.2
2019-Oct-16 22:26N 37°23' E 023°41'45 5.9
2019-Oct-16 14:52N 37°34' E 022°47'19 1.5
2019-Oct-16 02:05N 37°17' E 022°58'111.4
2019-Oct-16 02:01N 37°16' E 022°59'610.6
2019-Oct-16 01:29N 37°11' E 023°02'610.4
2019-Oct-16 00:53N 37°05' E 023°05'  
2019-Oct-12 00:37N 43°40' E 015°07'4314.1
2019-Oct-11 21:34N 43°57' E 014°12'114.7
2019-Oct-11 21:31N 43°57' E 014°11'714.7
2019-Oct-11 21:01N 44°03' E 014°06'1214.6
2019-Oct-11 20:12N 44°13' E 013°56'314.4
2019-Oct-11 20:01N 44°15' E 013°54'714.6
2019-Oct-11 19:31N 44°21' E 013°49'714.7
2019-Oct-11 19:00N 44°27' E 013°43'714.6
2019-Oct-11 18:31N 44°34' E 013°37'714.2
2019-Oct-11 18:00N 44°40' E 013°32'714.0
2019-Oct-11 17:31N 44°45' E 013°26'715.0
2019-Oct-11 17:01N 44°52' E 013°20'815.1
2019-Oct-11 16:30N 44°58' E 013°14'815.3
2019-Oct-11 16:01N 45°04' E 013°08'815.1
2019-Oct-11 15:31N 45°11' E 013°03'815.1
2019-Oct-11 15:01N 45°18' E 012°60'714.4
2019-Oct-11 14:31N 45°21' E 012°50'714.4
2019-Oct-11 14:01N 45°22' E 012°40'713.9
2019-Oct-11 13:31N 45°23' E 012°30'611.4
2019-Oct-11 13:01N 45°26' E 012°24'2 4.4
2019-Oct-11 12:30N 45°26' E 012°21'1 2.5
2019-Oct-11 11:57N 45°26' E 012°19'0 0.0
2019-Oct-11 11:27N 45°26' E 012°19'0 0.0
2019-Oct-11 10:57N 45°26' E 012°19'0 0.0
2019-Oct-11 10:27N 45°26' E 012°19'0 0.0
2019-Oct-11 09:57N 45°26' E 012°19'0 0.0
2019-Oct-11 09:27N 45°26' E 012°19'0 0.0
2019-Oct-11 08:57N 45°26' E 012°19'0 0.0
2019-Oct-11 08:27N 45°26' E 012°19'0 0.0
2019-Oct-11 07:57N 45°26' E 012°19'0 0.0
2019-Oct-11 07:27N 45°26' E 012°19'0 0.0
2019-Oct-11 06:57N 45°26' E 012°19'0 0.0
2019-Oct-11 06:27N 45°26' E 012°19'0 0.0
2019-Oct-11 05:57N 45°26' E 012°19'0 0.0
2019-Oct-11 05:27N 45°26' E 012°19'0 0.0
2019-Oct-11 04:57N 45°26' E 012°19'0 0.0
2019-Oct-11 04:27N 45°26' E 012°19'0 0.0
2019-Oct-11 03:57N 45°26' E 012°19'0 0.0
2019-Oct-11 03:27N 45°26' E 012°19'0 0.0
2019-Oct-11 02:57N 45°26' E 012°19'0 0.0
2019-Oct-11 02:27N 45°26' E 012°19'0 0.0
2019-Oct-11 01:57N 45°26' E 012°19'0 0.0
2019-Oct-11 01:27N 45°26' E 012°19'0 0.0
2019-Oct-11 00:57N 45°26' E 012°19'0 0.0
2019-Oct-11 00:27N 45°26' E 012°19'0 0.0
2019-Oct-10 23:57N 45°26' E 012°19'0 0.0
2019-Oct-10 23:27N 45°26' E 012°19'0 0.0
2019-Oct-10 22:57N 45°26' E 012°19'0 0.0
2019-Oct-10 22:27N 45°26' E 012°19'0 0.0
2019-Oct-10 21:57N 45°26' E 012°19'0 0.0
2019-Oct-10 21:27N 45°26' E 012°19'0 0.0
2019-Oct-10 20:57N 45°26' E 012°19'0 0.0
2019-Oct-10 20:27N 45°26' E 012°19'0 0.0
2019-Oct-10 19:57N 45°26' E 012°19'0 0.0
2019-Oct-10 19:27N 45°26' E 012°19'0 0.0
2019-Oct-10 18:57N 45°26' E 012°19'0 0.0
2019-Oct-10 18:27N 45°26' E 012°19'0 0.0
2019-Oct-10 17:57N 45°26' E 012°19'0 0.0
2019-Oct-10 17:27N 45°26' E 012°19'0 0.0
2019-Oct-10 16:57N 45°26' E 012°19'0 0.0
2019-Oct-10 16:27N 45°26' E 012°19'0 0.0
2019-Oct-10 15:57N 45°26' E 012°19'0 0.0
2019-Oct-10 15:27N 45°26' E 012°19'0 0.0
2019-Oct-10 14:57N 45°26' E 012°19'0 0.0
2019-Oct-10 14:27N 45°26' E 012°19'0 0.0
2019-Oct-10 13:57N 45°26' E 012°19'0 0.0
2019-Oct-10 13:27N 45°26' E 012°19'0 0.0
2019-Oct-10 12:57N 45°26' E 012°19'0 0.0
2019-Oct-10 12:27N 45°26' E 012°19'0 0.0
2019-Oct-10 11:57N 45°26' E 012°19'0 0.0
2019-Oct-10 11:27N 45°26' E 012°19'0 0.0
2019-Oct-10 10:57N 45°26' E 012°19'0 0.0
2019-Oct-10 10:27N 45°26' E 012°19'0 0.0
2019-Oct-10 09:57N 45°26' E 012°19'0 0.0
2019-Oct-10 09:27N 45°26' E 012°19'0 0.0
2019-Oct-10 08:57N 45°26' E 012°19'0 0.0
2019-Oct-10 08:27N 45°26' E 012°19'0 0.0
2019-Oct-10 07:57N 45°26' E 012°19'0 0.0
2019-Oct-10 07:27N 45°26' E 012°19'0 0.0
2019-Oct-10 06:57N 45°26' E 012°19'0 0.0
2019-Oct-10 06:27N 45°26' E 012°19'0 0.0
2019-Oct-10 05:57N 45°26' E 012°19'0 0.2
2019-Oct-10 05:31N 45°26' E 012°19'1 2.8
2019-Oct-10 05:01N 45°26' E 012°21'2 4.3
2019-Oct-10 04:31N 45°26' E 012°24'4 7.9
2019-Oct-10 04:01N 45°24' E 012°29'510.2
2019-Oct-10 03:31N 45°19' E 012°32'611.8
2019-Oct-10 03:00N 45°14' E 012°36'510.8
2019-Oct-10 02:30N 45°11' E 012°42'815.5
2019-Oct-10 02:01N 45°05' E 012°49'815.7
2019-Oct-10 01:30N 44°58' E 012°54'815.6
2019-Oct-10 01:00N 44°51' E 012°59'816.3
2019-Oct-10 00:30N 44°43' E 013°03'816.4
2019-Oct-10 00:00N 44°35' E 013°06'816.4
2019-Oct-09 23:29N 44°27' E 013°10'817.4
2019-Oct-09 23:00N 44°20' E 013°14'917.5
2019-Oct-09 22:30N 44°13' E 013°23'917.9
2019-Oct-09 22:00N 44°08' E 013°32'918.0
2019-Oct-09 21:30N 44°02' E 013°42'918.2
2019-Oct-09 21:00N 43°57' E 013°52'918.2
2019-Oct-09 20:30N 43°52' E 014°03'918.1
2019-Oct-09 20:00N 43°49' E 014°15'  
Track history (hours):
 
Tides and Currents Weather Stations Pressure Air Temp Water Temp Dewpoint Dewpoint Depression Visibility Wind Speed Wind Dir Waves Ship Positions

Silver Shadow

Operator: V Ships Leisure SAM

Last reported at 2019-Oct-17 18:00 UTC. Time now 2019-Oct-17 18:07 UTC.
Position N 37°28' E 023°49'.

Length 186 m; draft 6.1 m.

Type: Passenger vessel. MMSI: 308628000.

Date/timePositionNaut miles runAvg speedWind from/ knotsBaromVisibWave heightAir tempDewpointWater temp
2019-Oct-17 18:00N 37°28' E 023°49'510.3
2019-Oct-17 17:30N 37°33' E 023°46'510.3
2019-Oct-17 17:00N 37°38' E 023°43'510.3
2019-Oct-17 16:31N 37°43' E 023°41'510.4
2019-Oct-17 16:01N 37°47' E 023°38'510.1
2019-Oct-17 15:31N 37°52' E 023°37'4 8.2
2019-Oct-17 15:00N 37°56' E 023°37'0 0.5
2019-Oct-17 14:30N 37°56' E 023°38'0 0.0
2019-Oct-17 14:00N 37°56' E 023°38'0 0.0
2019-Oct-17 13:30N 37°56' E 023°38'0 0.0
2019-Oct-17 13:00N 37°56' E 023°38'0 0.0
2019-Oct-17 12:30N 37°56' E 023°38'0 0.0
2019-Oct-17 12:00N 37°56' E 023°38'0 0.0
2019-Oct-17 11:30N 37°56' E 023°38'0 0.0
2019-Oct-17 11:00N 37°56' E 023°38'0 0.0
2019-Oct-17 10:30N 37°56' E 023°38'0 0.0
2019-Oct-17 09:54N 37°56' E 023°38'0 0.0
2019-Oct-17 09:30N 37°56' E 023°38'0 0.0
2019-Oct-17 09:00N 37°56' E 023°38'0 0.0
2019-Oct-17 08:30N 37°56' E 023°38'0 0.0
2019-Oct-17 07:54N 37°56' E 023°38'0 0.0
2019-Oct-17 07:24N 37°56' E 023°38'0 0.0
2019-Oct-17 06:54N 37°56' E 023°38'0 0.0
2019-Oct-17 06:30N 37°56' E 023°38'0 0.0
2019-Oct-17 05:54N 37°56' E 023°38'0 0.0
2019-Oct-17 05:24N 37°56' E 023°38'0 0.0
2019-Oct-17 05:00N 37°56' E 023°38'0 0.0
2019-Oct-17 04:30N 37°56' E 023°38'0 0.0
2019-Oct-17 04:00N 37°56' E 023°38'0 0.5
2019-Oct-17 03:30N 37°56' E 023°37'2 3.1
2019-Oct-17 03:00N 37°55' E 023°36'1 1.8
2019-Oct-17 02:30N 37°54' E 023°37'5 9.1
2019-Oct-17 02:00N 37°50' E 023°39'4 8.9
2019-Oct-17 01:30N 37°46' E 023°42'4 8.6
2019-Oct-17 01:00N 37°42' E 023°44'4 8.1
2019-Oct-17 00:30N 37°39' E 023°46'4 8.2
2019-Oct-16 23:59N 37°35' E 023°48'4 8.6
2019-Oct-16 23:28N 37°31' E 023°46'4 8.5
2019-Oct-16 23:00N 37°27' E 023°44'5 8.2
2019-Oct-16 22:26N 37°23' E 023°41'45 5.9
2019-Oct-16 14:52N 37°34' E 022°47'19 1.5
2019-Oct-16 02:05N 37°17' E 022°58'111.4
2019-Oct-16 02:01N 37°16' E 022°59'610.6
2019-Oct-16 01:29N 37°11' E 023°02'610.4
2019-Oct-16 00:53N 37°05' E 023°05'  
2019-Oct-12 00:37N 43°40' E 015°07'4314.1
2019-Oct-11 21:34N 43°57' E 014°12'114.7
2019-Oct-11 21:31N 43°57' E 014°11'714.7
2019-Oct-11 21:01N 44°03' E 014°06'1214.6
2019-Oct-11 20:12N 44°13' E 013°56'314.4
2019-Oct-11 20:01N 44°15' E 013°54'714.6
2019-Oct-11 19:31N 44°21' E 013°49'714.7
2019-Oct-11 19:00N 44°27' E 013°43'714.6
2019-Oct-11 18:31N 44°34' E 013°37'714.2
2019-Oct-11 18:00N 44°40' E 013°32'714.0
2019-Oct-11 17:31N 44°45' E 013°26'715.0
2019-Oct-11 17:01N 44°52' E 013°20'815.1
2019-Oct-11 16:30N 44°58' E 013°14'815.3
2019-Oct-11 16:01N 45°04' E 013°08'815.1
2019-Oct-11 15:31N 45°11' E 013°03'815.1
2019-Oct-11 15:01N 45°18' E 012°60'714.4
2019-Oct-11 14:31N 45°21' E 012°50'714.4
2019-Oct-11 14:01N 45°22' E 012°40'713.9
2019-Oct-11 13:31N 45°23' E 012°30'611.4
2019-Oct-11 13:01N 45°26' E 012°24'2 4.4
2019-Oct-11 12:30N 45°26' E 012°21'1 2.5
2019-Oct-11 11:57N 45°26' E 012°19'0 0.0
2019-Oct-11 11:27N 45°26' E 012°19'0 0.0
2019-Oct-11 10:57N 45°26' E 012°19'0 0.0
2019-Oct-11 10:27N 45°26' E 012°19'0 0.0
2019-Oct-11 09:57N 45°26' E 012°19'0 0.0
2019-Oct-11 09:27N 45°26' E 012°19'0 0.0
2019-Oct-11 08:57N 45°26' E 012°19'0 0.0
2019-Oct-11 08:27N 45°26' E 012°19'0 0.0
2019-Oct-11 07:57N 45°26' E 012°19'0 0.0
2019-Oct-11 07:27N 45°26' E 012°19'0 0.0
2019-Oct-11 06:57N 45°26' E 012°19'0 0.0
2019-Oct-11 06:27N 45°26' E 012°19'0 0.0
2019-Oct-11 05:57N 45°26' E 012°19'0 0.0
2019-Oct-11 05:27N 45°26' E 012°19'0 0.0
2019-Oct-11 04:57N 45°26' E 012°19'0 0.0
2019-Oct-11 04:27N 45°26' E 012°19'0 0.0
2019-Oct-11 03:57N 45°26' E 012°19'0 0.0
2019-Oct-11 03:27N 45°26' E 012°19'0 0.0
2019-Oct-11 02:57N 45°26' E 012°19'0 0.0
2019-Oct-11 02:27N 45°26' E 012°19'0 0.0
2019-Oct-11 01:57N 45°26' E 012°19'0 0.0
2019-Oct-11 01:27N 45°26' E 012°19'0 0.0
2019-Oct-11 00:57N 45°26' E 012°19'0 0.0
2019-Oct-11 00:27N 45°26' E 012°19'0 0.0
2019-Oct-10 23:57N 45°26' E 012°19'0 0.0
2019-Oct-10 23:27N 45°26' E 012°19'0 0.0
2019-Oct-10 22:57N 45°26' E 012°19'0 0.0
2019-Oct-10 22:27N 45°26' E 012°19'0 0.0
2019-Oct-10 21:57N 45°26' E 012°19'0 0.0
2019-Oct-10 21:27N 45°26' E 012°19'0 0.0
2019-Oct-10 20:57N 45°26' E 012°19'0 0.0
2019-Oct-10 20:27N 45°26' E 012°19'0 0.0
2019-Oct-10 19:57N 45°26' E 012°19'0 0.0
2019-Oct-10 19:27N 45°26' E 012°19'0 0.0
2019-Oct-10 18:57N 45°26' E 012°19'0 0.0
2019-Oct-10 18:27N 45°26' E 012°19'0 0.0
2019-Oct-10 17:57N 45°26' E 012°19'0 0.0
2019-Oct-10 17:27N 45°26' E 012°19'0 0.0
2019-Oct-10 16:57N 45°26' E 012°19'0 0.0
2019-Oct-10 16:27N 45°26' E 012°19'0 0.0
2019-Oct-10 15:57N 45°26' E 012°19'0 0.0
2019-Oct-10 15:27N 45°26' E 012°19'0 0.0
2019-Oct-10 14:57N 45°26' E 012°19'0 0.0
2019-Oct-10 14:27N 45°26' E 012°19'0 0.0
2019-Oct-10 13:57N 45°26' E 012°19'0 0.0
2019-Oct-10 13:27N 45°26' E 012°19'0 0.0
2019-Oct-10 12:57N 45°26' E 012°19'0 0.0
2019-Oct-10 12:27N 45°26' E 012°19'0 0.0
2019-Oct-10 11:57N 45°26' E 012°19'0 0.0
2019-Oct-10 11:27N 45°26' E 012°19'0 0.0
2019-Oct-10 10:57N 45°26' E 012°19'0 0.0
2019-Oct-10 10:27N 45°26' E 012°19'0 0.0
2019-Oct-10 09:57N 45°26' E 012°19'0 0.0
2019-Oct-10 09:27N 45°26' E 012°19'0 0.0
2019-Oct-10 08:57N 45°26' E 012°19'0 0.0
2019-Oct-10 08:27N 45°26' E 012°19'0 0.0
2019-Oct-10 07:57N 45°26' E 012°19'0 0.0
2019-Oct-10 07:27N 45°26' E 012°19'0 0.0
2019-Oct-10 06:57N 45°26' E 012°19'0 0.0
2019-Oct-10 06:27N 45°26' E 012°19'0 0.0
2019-Oct-10 05:57N 45°26' E 012°19'0 0.2
2019-Oct-10 05:31N 45°26' E 012°19'1 2.8
2019-Oct-10 05:01N 45°26' E 012°21'2 4.3
2019-Oct-10 04:31N 45°26' E 012°24'4 7.9
2019-Oct-10 04:01N 45°24' E 012°29'510.2
2019-Oct-10 03:31N 45°19' E 012°32'611.8
2019-Oct-10 03:00N 45°14' E 012°36'510.8
2019-Oct-10 02:30N 45°11' E 012°42'815.5
2019-Oct-10 02:01N 45°05' E 012°49'815.7
2019-Oct-10 01:30N 44°58' E 012°54'815.6
2019-Oct-10 01:00N 44°51' E 012°59'816.3
2019-Oct-10 00:30N 44°43' E 013°03'816.4
2019-Oct-10 00:00N 44°35' E 013°06'816.4
2019-Oct-09 23:29N 44°27' E 013°10'817.4
2019-Oct-09 23:00N 44°20' E 013°14'917.5
2019-Oct-09 22:30N 44°13' E 013°23'917.9
2019-Oct-09 22:00N 44°08' E 013°32'918.0
2019-Oct-09 21:30N 44°02' E 013°42'918.2
2019-Oct-09 21:00N 43°57' E 013°52'918.2
2019-Oct-09 20:30N 43°52' E 014°03'918.1
2019-Oct-09 20:00N 43°49' E 014°15'  

Dump ship's entire track history